Latest Weather Observations for Mount Gellibrand

IDV60801

Issued at 9:31 am EST Wednesday 1 June 2016 (issued every 30 minutes, with the page automatically refreshed every 10 minutes)

About weather observations | Map of weather stations | Latest weather observations for VIC | Other Formats
Station Details ID: 090035 Name: MOUNT GELLIBRAND Lat: -38.23 Lon: 143.79 Height: 261.0 m
Data from the previous 72 hours. | See also: Recent months at Mount Gellibrand
Date/Time
EST
Temp
°C
App
Temp
°C
Dew
Point
Rel
Hum
%
Delta-T
°C
Wind Press
QNH
hPa
Press
MSL
hPa
Rain
since 9 am
mm
Dir
 
Spd
km/h
Gust
km/h
Spd
kts
Gust
kts
01/09:30am 7.9 5.3 7.9 100 0.0 E 11 13 6 7 1028.7 1028.8 0.0
01/09:00am 7.5 5.2 7.5 100 0.0 E 9 11 5 6 1028.6 1028.7 0.2
01/08:30am 7.6 5.3 7.6 100 0.0 E 9 9 5 5 1028.5 1028.6 0.0
01/08:00am 7.5 5.6 7.5 100 0.0 E 7 9 4 5 1028.2 1028.3 0.0
01/07:30am 7.2 4.5 7.2 100 0.0 E 11 13 6 7 1028.0 1028.1 0.0
01/07:00am 6.6 3.7 6.6 100 0.0 E 11 13 6 7 1027.7 1027.9 0.0
01/06:30am 6.4 3.5 6.4 100 0.0 E 11 11 6 6 1027.5 1027.7 0.0
01/06:00am 7.2 4.5 7.2 100 0.0 E 11 11 6 6 1027.3 1027.5 0.0
01/05:30am 6.5 4.0 6.5 100 0.0 E 9 9 5 5 1027.2 1027.4 0.0
01/05:00am 7.4 5.1 7.4 100 0.0 E 9 11 5 6 1027.1 1027.2 0.0
01/04:30am 7.7 4.7 7.7 100 0.0 E 13 15 7 8 1027.1 1027.2 0.0
01/04:00am 7.6 5.0 7.6 100 0.0 ENE 11 13 6 7 1027.2 1027.4 0.0
01/03:30am 8.0 5.1 8.0 100 0.0 E 13 15 7 8 1027.4 1027.6 0.0
01/03:00am 8.2 4.9 8.2 100 0.0 E 15 17 8 9 1027.4 1027.6 0.0
01/02:30am 8.1 4.8 8.1 100 0.0 E 15 15 8 8 1027.5 1027.7 0.0
01/02:00am 8.0 5.0 7.9 99 0.0 ENE 13 15 7 8 1027.6 1027.8 0.0
01/01:30am 8.2 4.9 7.9 98 0.1 E 15 15 8 8 1027.6 1027.8 0.0
01/01:00am 8.2 4.9 7.9 98 0.1 E 15 17 8 9 1027.8 1028.0 0.0
01/12:30am 8.2 4.8 7.8 97 0.2 ENE 15 17 8 9 1028.1 1028.2 0.0
01/12:00am 8.1 4.6 7.3 95 0.4 ENE 15 17 8 9 1028.3 1028.4 0.0
 
Date/Time
EST
Temp
°C
App
Temp
°C
Dew
Point
Rel
Hum
%
Delta-T
°C
Wind Press
QNH
hPa
Press
MSL
hPa
Rain
since 9 am
mm
Dir
 
Spd
km/h
Gust
km/h
Spd
kts
Gust
kts
31/11:30pm 8.2 4.3 7.1 93 0.5 ENE 17 17 9 9 1028.3 1028.4 0.0
31/11:00pm 8.1 4.1 6.7 91 0.7 ENE 17 19 9 10 1028.3 1028.4 0.0
31/10:30pm 8.2 3.8 6.7 90 0.7 E 19 20 10 11 1028.4 1028.5 0.0
31/10:00pm 8.5 3.9 6.5 87 0.9 ENE 20 24 11 13 1028.5 1028.6 0.0
31/09:30pm 8.3 3.2 5.8 84 1.1 ENE 22 22 12 12 1028.5 1028.6 0.0
31/09:00pm 8.3 3.1 5.6 83 1.2 ENE 22 26 12 14 1028.3 1028.4 0.0
31/08:30pm 8.1 3.5 6.4 89 0.8 ENE 20 22 11 12 1028.2 1028.3 0.0
31/08:00pm 8.6 3.5 5.9 83 1.2 E 22 26 12 14 1028.1 1028.2 0.0
31/07:30pm 9.1 3.6 6.0 81 1.4 E 24 30 13 16 1028.1 1028.2 0.0
31/07:00pm 9.2 4.2 6.5 83 1.3 E 22 30 12 16 1028.0 1028.1 0.0
31/06:30pm 9.1 4.6 7.1 87 1.0 ESE 20 24 11 13 1027.8 1028.0 0.0
31/06:00pm 9.4 5.1 7.0 85 1.1 ESE 19 20 10 11 1027.7 1027.9 0.0
31/05:30pm 9.8 5.7 6.3 79 1.6 ESE 17 20 9 11 1027.5 1027.7 0.0
31/05:00pm 10.2 6.4 5.8 74 2.0 ESE 15 17 8 9 1027.3 1027.5 0.0
31/04:30pm 11.1 7.3 6.0 71 2.4 E 15 17 8 9 1027.3 1027.5 0.0
31/04:00pm 12.1 8.0 6.2 67 2.8 E 17 20 9 11 1027.1 1027.2 0.0
31/03:30pm 12.7 8.6 6.3 65 3.1 E 17 20 9 11 1027.0 1027.1 0.0
31/03:00pm 12.8 9.0 5.7 62 3.4 E 15 20 8 11 1027.0 1027.1 0.0
31/02:30pm 12.7 9.3 5.8 63 3.3 E 13 17 7 9 1027.1 1027.2 0.0
31/02:00pm 12.6 8.5 6.0 64 3.1 E 17 20 9 11 1027.4 1027.6 0.0
31/01:30pm 12.3 8.6 6.4 67 2.8 ENE 15 19 8 10 1027.6 1027.8 0.0
31/01:00pm 11.6 7.8 5.7 67 2.8 ENE 15 20 8 11 1028.0 1028.1 0.0
31/12:30pm 11.2 7.3 5.3 67 2.7 ENE 15 19 8 10 1028.2 1028.3 0.0
31/12:00pm 10.3 5.9 4.5 67 2.6 ENE 17 20 9 11 1028.7 1028.8 0.0
31/11:30am 9.3 5.9 3.9 69 2.4 ENE 11 15 6 8 1029.1 1029.2 0.0
31/11:00am 8.6 5.2 4.0 73 2.0 ENE 11 15 6 8 1029.6 1029.7 0.0
31/10:30am 7.5 4.0 3.7 77 1.7 ENE 11 15 6 8 1029.7 1029.8 0.0
31/10:00am 7.4 3.5 3.5 76 1.7 NE 13 19 7 10 1029.6 1029.7 0.0
31/09:30am 6.8 2.8 2.9 76 1.7 NE 13 17 7 9 1029.6 1029.7 0.0
31/09:00am 6.1 2.1 2.7 79 1.4 NE 13 15 7 8 1029.6 1029.7 0.0
31/08:30am 5.9 2.3 2.9 81 1.3 NE 11 15 6 8 1029.3 1029.4 0.0
31/08:00am 5.4 0.9 2.4 81 1.2 NE 15 17 8 9 1029.1 1029.2 0.0
31/07:30am 5.4 0.9 2.1 79 1.4 NNE 15 19 8 10 1028.8 1028.9 0.0
31/07:00am 5.7 1.2 2.4 79 1.4 NNE 15 20 8 11 1028.4 1028.5 0.0
31/06:30am 5.5 0.6 2.3 80 1.3 NNE 17 20 9 11 1028.2 1028.3 0.0
31/06:00am 5.8 0.9 2.3 78 1.4 NNE 17 22 9 12 1028.1 1028.2 0.0
31/05:30am 6.6 1.8 2.7 76 1.6 NNE 17 20 9 11 1027.7 1027.9 0.0
31/05:00am 6.8 2.0 2.7 75 1.7 NNE 17 22 9 12 1027.7 1027.9 0.0
31/04:30am 6.5 1.7 2.4 75 1.7 N 17 20 9 11 1027.5 1027.7 0.0
31/04:00am 6.5 2.4 2.4 75 1.7 NNE 13 15 7 8 1027.5 1027.7 0.0
31/03:30am 6.5 3.1 2.0 73 1.9 NNE 9 11 5 6 1027.7 1027.9 0.0
31/03:00am 7.3 3.9 2.0 69 2.2 N 9 11 5 6 1027.8 1028.0 0.0
31/02:30am 6.6 3.6 1.9 72 1.9 N 7 9 4 5 1027.8 1028.0 0.0
31/02:00am 7.0 3.6 2.1 71 2.0 N 9 13 5 7 1027.8 1028.0 0.0
31/01:30am 7.2 3.8 2.1 70 2.1 N 9 11 5 6 1027.8 1028.0 0.0
31/01:00am 7.0 3.7 2.5 73 1.9 N 9 11 5 6 1027.8 1028.0 0.0
31/12:30am 7.1 3.5 3.2 76 1.7 NNE 11 13 6 7 1028.0 1028.1 0.0
31/12:00am 6.7 3.2 3.7 81 1.3 NNE 11 13 6 7 1028.1 1028.2 0.0
 
Date/Time
EST
Temp
°C
App
Temp
°C
Dew
Point
Rel
Hum
%
Delta-T
°C
Wind Press
QNH
hPa
Press
MSL
hPa
Rain
since 9 am
mm
Dir
 
Spd
km/h
Gust
km/h
Spd
kts
Gust
kts
30/11:30pm 7.0 4.0 4.1 82 1.3 NE 9 11 5 6 1028.1 1028.2 0.0
30/11:00pm 7.1 3.7 4.1 81 1.3 NE 11 13 6 7 1028.0 1028.1 0.0
30/10:30pm 7.2 3.5 4.5 83 1.2 NE 13 15 7 8 1028.0 1028.1 0.0
30/10:00pm 7.0 2.6 4.5 84 1.1 ENE 17 19 9 10 1027.8 1028.0 0.0
30/09:30pm 7.0 2.1 4.3 83 1.2 ENE 19 20 10 11 1027.7 1027.9 0.0
30/09:00pm 7.5 2.1 4.3 80 1.4 E 22 26 12 14 1027.4 1027.6 0.0
30/08:30pm 7.9 2.4 4.1 77 1.7 E 22 24 12 13 1027.3 1027.5 0.0
30/08:00pm 7.6 2.2 4.4 80 1.4 E 22 26 12 14 1027.2 1027.4 0.0
30/07:30pm 7.8 2.4 4.4 79 1.5 E 22 28 12 15 1027.0 1027.1 0.0
30/07:00pm 7.8 2.4 4.4 79 1.5 ESE 22 24 12 13 1026.8 1026.9 0.0
30/06:30pm 8.0 2.4 3.5 73 2.0 E 22 24 12 13 1026.4 1026.5 0.0
30/06:00pm 8.3 2.7 3.2 70 2.2 E 22 28 12 15 1026.2 1026.3 0.0
30/05:30pm 8.4 2.8 3.3 70 2.2 E 22 24 12 13 1026.0 1026.1 0.0
30/05:00pm 9.0 3.0 3.4 68 2.4 E 24 26 13 14 1025.6 1025.7 0.0
30/04:30pm 9.7 3.4 3.7 66 2.7 E 26 32 14 17 1025.5 1025.6 0.0
30/04:00pm 10.3 3.9 3.3 62 3.1 ENE 26 33 14 18 1025.3 1025.4 0.0
30/03:30pm 10.7 4.4 3.5 61 3.2 ENE 26 30 14 16 1025.2 1025.3 0.0
30/03:00pm 11.1 5.9 3.6 60 3.3 ENE 20 32 11 17 1025.2 1025.3 0.0
30/02:30pm 11.4 6.0 4.6 63 3.1 E 22 28 12 15 1025.3 1025.4 0.0
30/02:00pm 11.3 6.2 4.3 62 3.2 ENE 20 30 11 16 1025.2 1025.3 0.0
30/01:30pm 11.2 5.7 4.2 62 3.2 NE 22 30 12 16 1025.4 1025.5 0.0
30/01:00pm 11.1 5.7 4.6 64 3.0 ENE 22 30 12 16 1025.6 1025.7 0.0
30/12:30pm 10.7 5.2 4.2 64 2.9 NE 22 28 12 15 1025.7 1025.8 0.0
30/12:00pm 10.9 6.4 4.4 64 2.9 NE 17 22 9 12 1025.9 1026.0 0.0
30/11:30am 10.5 6.4 4.6 67 2.7 NNE 15 20 8 11 1026.2 1026.3 0.0
30/11:00am 9.5 6.2 4.5 71 2.2 NNE 11 15 6 8 1026.6 1026.7 0.0
30/10:30am 8.8 5.7 3.8 71 2.2 NNE 9 13 5 7 1026.7 1026.8 0.0
30/10:00am 8.2 4.9 2.2 66 2.5 NNE 9 13 5 7 1026.7 1026.8 0.0
30/09:30am 8.0 5.2 2.3 67 2.4 NNE 6 9 3 5 1026.4 1026.5 0.0
30/09:00am 7.9 5.0 1.7 65 2.6 NE 6 7 3 4 1026.3 1026.4 0.0
30/08:30am 7.9 5.0 1.7 65 2.6 NNE 6 7 3 4 1026.1 1026.2 0.0
30/08:00am 7.2 3.7 1.3 66 2.4 NNE 9 9 5 5 1026.0 1026.1 0.0
30/07:30am 7.3 4.2 1.2 65 2.5 NE 7 9 4 5 1025.7 1025.8 0.0
30/07:00am 7.1 4.2 1.6 68 2.2 ENE 6 9 3 5 1025.5 1025.6 0.0
30/06:30am 6.7 3.9 2.0 72 1.9 E 6 7 3 4 1025.1 1025.2 0.0
30/06:00am 6.3 3.5 1.8 73 1.8 E 6 6 3 3 1024.8 1024.9 0.0
30/05:30am 6.0 3.6 2.1 76 1.6 E 4 4 2 2 1024.6 1024.7 0.0
30/05:00am 5.9 3.5 2.2 77 1.5 ESE 4 6 2 3 1024.3 1024.4 0.0
30/04:30am 7.0 4.1 1.3 67 2.3 NNW 6 7 3 4 1024.1 1024.2 0.0
30/04:00am 7.3 3.9 1.6 67 2.3 NNW 9 13 5 7 1023.9 1023.9 0.0
30/03:30am 6.9 3.9 1.8 70 2.1 NNW 7 11 4 6 1023.9 1023.9 0.0
30/03:00am 6.8 3.7 1.3 68 2.2 NNW 7 13 4 7 1024.0 1024.1 0.0
30/02:30am 7.0 3.5 1.5 68 2.3 NNW 9 13 5 7 1023.9 1023.9 0.0
30/02:00am 6.9 3.5 1.8 70 2.1 NNW 9 11 5 6 1023.7 1023.8 0.0
30/01:30am 6.8 3.4 2.1 72 2.0 NNW 9 13 5 7 1023.4 1023.5 0.0
30/01:00am 6.7 3.0 2.4 74 1.8 NW 11 15 6 8 1023.4 1023.5 0.0
30/12:30am 7.0 3.3 2.5 73 1.9 NNW 11 13 6 7 1023.4 1023.5 0.0
30/12:00am 7.3 3.3 2.8 73 1.9 N 13 15 7 8 1023.3 1023.4 0.0
 
Date/Time
EST
Temp
°C
App
Temp
°C
Dew
Point
Rel
Hum
%
Delta-T
°C
Wind Press
QNH
hPa
Press
MSL
hPa
Rain
since 9 am
mm
Dir
 
Spd
km/h
Gust
km/h
Spd
kts
Gust
kts
29/11:30pm 7.5 4.4 3.4 75 1.8 N 9 13 5 7 1023.2 1023.3 0.0
29/11:00pm 7.5 4.0 3.4 75 1.8 NE 11 13 6 7 1023.1 1023.2 0.0
29/10:30pm 7.8 4.5 2.5 69 2.2 ENE 9 13 5 7 1022.9 1023.0 0.0
29/10:00pm 8.3 4.6 2.5 67 2.5 ESE 11 13 6 7 1022.8 1022.9 0.0
29/09:30pm 8.2 4.2 2.9 69 2.3 ESE 13 15 7 8 1022.7 1022.8 0.0
29/09:00pm 8.4 4.8 2.8 68 2.4 SE 11 13 6 7 1022.6 1022.7 0.0
29/08:30pm 8.5 5.4 3.4 70 2.2 SSE 9 11 5 6 1022.6 1022.7 0.0
29/08:00pm 8.6 5.5 3.8 72 2.1 SSE 9 11 5 6 1022.5 1022.6 0.0
29/07:30pm 8.9 6.2 3.9 71 2.2 SSE 7 9 4 5 1022.2 1022.3 0.0
29/07:00pm 8.9 6.2 3.9 71 2.2 SE 7 9 4 5 1021.9 1022.0 0.0
29/06:30pm 9.1 6.4 3.7 69 2.4 SSE 7 9 4 5 1021.7 1021.8 0.0
29/06:00pm 9.1 6.6 4.7 74 2.0 S 7 9 4 5 1021.4 1021.5 0.0
29/05:30pm 9.7 8.0 5.7 76 1.9 W 4 6 2 3 1021.0 1021.1 0.0
29/05:00pm 9.8 8.2 6.5 80 1.6 W 4 6 2 3 1020.9 1021.0 0.0
29/04:30pm 10.2 8.2 6.2 76 1.9 W 6 9 3 5 1020.7 1020.7 0.0
29/04:00pm 10.4 8.2 5.2 70 2.4 W 6 7 3 4 1020.6 1020.6 0.0
29/03:30pm 10.4 8.1 5.8 73 2.2 W 7 9 4 5 1020.6 1020.6 0.0
29/03:00pm 10.5 7.9 5.9 73 2.2 W 9 13 5 7 1020.4 1020.4 0.0
29/02:30pm 10.6 8.3 5.8 72 2.2 W 7 13 4 7 1020.4 1020.4 0.0
29/02:00pm 10.3 8.0 4.7 68 2.5 WSW 6 7 3 4 1020.3 1020.3 0.0
29/01:30pm 10.2 7.0 5.0 70 2.4 WSW 11 15 6 8 1020.3 1020.3 0.0
29/01:00pm 10.3 7.4 4.9 69 2.5 WSW 9 13 5 7 1020.3 1020.3 0.0
29/12:30pm 10.2 6.5 4.6 68 2.5 W 13 20 7 11 1020.5 1020.5 0.0
29/12:00pm 10.3 6.3 4.9 69 2.5 W 15 20 8 11 1020.5 1020.5 0.0
29/11:30am 10.3 6.3 5.1 70 2.4 W 15 20 8 11 1020.6 1020.6 0.0
29/11:00am 9.8 6.2 5.2 73 2.1 W 13 20 7 11 1020.7 1020.7 0.0
29/10:30am 9.1 5.7 5.8 80 1.5 WSW 13 15 7 8 1020.7 1020.7 0.0
29/10:00am 8.7 5.4 6.5 86 1.0 WSW 13 17 7 9 1020.6 1020.6 0.0

Other Formats:

Comma delimited format used in spreadsheet applications
http://www.bom.gov.au/fwo/IDV60801/IDV60801.95845.axf

JavaScript Object Notation format (JSON) in row-major order
http://www.bom.gov.au/fwo/IDV60801/IDV60801.95845.json